MSC Ajaccio — 9HA3461 — position and weather

sailwx.info

Track history (hours):
 
Tides and Currents Weather Stations Pressure Air Temp Water Temp Dewpoint Dewpoint Depression Visibility Wind Speed Wind Dir Waves Ship Positions

MSC Ajaccio

Last reported at 2018-May-23 03:30 UTC. Time now 2018-May-26 14:09 UTC.
Position S 24°14' W 046°07'.

Length 300 m; draft 13.8 m.

Type: Ship (hazmat cat A). MMSI: 229625000.

Date/timePositionNaut miles runAvg speedWind from/ knotsBaromVisibWave heightAir tempDewpointWater temp
2018-May-23 03:30S 24°14' W 046°07'918.4
2018-May-23 03:01S 24°14' W 046°17'816.0
2018-May-23 02:30S 24°08' W 046°22'611.6
2018-May-23 02:01S 24°02' W 046°21'4 7.1
2018-May-23 01:30S 23°60' W 046°18'3 6.1
2018-May-23 00:59S 23°56' W 046°19'2 0.1
2018-May-22 05:51S 23°55' W 046°21'0 0.0
2018-May-22 05:30S 23°55' W 046°21'0 0.0
2018-May-21 17:23S 23°55' W 046°21'2 3.7
2018-May-21 16:43S 23°56' W 046°19'2 8.4
2018-May-21 16:30S 23°58' W 046°18'3 7.0
2018-May-21 16:00S 24°01' W 046°20'4 8.4
2018-May-21 15:31S 24°04' W 046°22'5 9.9
2018-May-21 15:01S 24°08' W 046°25'2 3.0
2018-May-21 14:31S 24°10' W 046°25'1 1.1
2018-May-21 14:01S 24°10' W 046°25'1 1.1
2018-May-21 13:31S 24°11' W 046°25'1 1.2
2018-May-21 13:01S 24°12' W 046°25'1 1.2
2018-May-21 12:30S 24°12' W 046°25'1 1.3
2018-May-21 12:00S 24°13' W 046°25'0 0.7
2018-May-21 11:31S 24°13' W 046°26'3 5.0
2018-May-21 11:00S 24°12' W 046°23'2 3.8
2018-May-21 10:31S 24°10' W 046°22'1 1.4
2018-May-21 10:00S 24°11' W 046°23'1 1.6
2018-May-21 09:31S 24°11' W 046°23'1 1.6
2018-May-21 09:01S 24°12' W 046°24'1 1.6
2018-May-21 08:31S 24°12' W 046°25'1 1.8
2018-May-21 08:01S 24°13' W 046°25'1 1.4
2018-May-21 07:31S 24°12' W 046°25'3 6.8
2018-May-21 07:00S 24°10' W 046°22'1 1.5
2018-May-21 06:30S 24°10' W 046°23'1 1.7
2018-May-21 06:00S 24°11' W 046°23'1 2.1
2018-May-21 05:31S 24°11' W 046°24'1 1.3
2018-May-21 05:01S 24°12' W 046°25'2 4.4
2018-May-21 04:31S 24°11' W 046°22'0 0.5
2018-May-21 04:00S 24°11' W 046°22'1 2.3
2018-May-21 03:30S 24°12' W 046°23'1 1.9
2018-May-21 03:00S 24°12' W 046°24'1 1.8
2018-May-21 02:30S 24°11' W 046°24'4 8.1
2018-May-21 02:00S 24°15' W 046°26'612.4
2018-May-21 01:31S 24°21' W 046°27'612.6
2018-May-21 01:01S 24°27' W 046°30'612.6
2018-May-21 00:30S 24°33' W 046°33'612.6
2018-May-21 00:01S 24°38' W 046°36'612.8
2018-May-20 23:31S 24°44' W 046°40'712.9
2018-May-20 22:58S 24°50' W 046°44'  
Track history (hours):
 
Tides and Currents Weather Stations Pressure Air Temp Water Temp Dewpoint Dewpoint Depression Visibility Wind Speed Wind Dir Waves Ship Positions

MSC Ajaccio

Last reported at 2018-May-23 03:30 UTC. Time now 2018-May-26 14:09 UTC.
Position S 24°14' W 046°07'.

Length 300 m; draft 13.8 m.

Type: Ship (hazmat cat A). MMSI: 229625000.

Date/timePositionNaut miles runAvg speedWind from/ knotsBaromVisibWave heightAir tempDewpointWater temp
2018-May-23 03:30S 24°14' W 046°07'918.4
2018-May-23 03:01S 24°14' W 046°17'816.0
2018-May-23 02:30S 24°08' W 046°22'611.6
2018-May-23 02:01S 24°02' W 046°21'4 7.1
2018-May-23 01:30S 23°60' W 046°18'3 6.1
2018-May-23 00:59S 23°56' W 046°19'2 0.1
2018-May-22 05:51S 23°55' W 046°21'0 0.0
2018-May-22 05:30S 23°55' W 046°21'0 0.0
2018-May-21 17:23S 23°55' W 046°21'2 3.7
2018-May-21 16:43S 23°56' W 046°19'2 8.4
2018-May-21 16:30S 23°58' W 046°18'3 7.0
2018-May-21 16:00S 24°01' W 046°20'4 8.4
2018-May-21 15:31S 24°04' W 046°22'5 9.9
2018-May-21 15:01S 24°08' W 046°25'2 3.0
2018-May-21 14:31S 24°10' W 046°25'1 1.1
2018-May-21 14:01S 24°10' W 046°25'1 1.1
2018-May-21 13:31S 24°11' W 046°25'1 1.2
2018-May-21 13:01S 24°12' W 046°25'1 1.2
2018-May-21 12:30S 24°12' W 046°25'1 1.3
2018-May-21 12:00S 24°13' W 046°25'0 0.7
2018-May-21 11:31S 24°13' W 046°26'3 5.0
2018-May-21 11:00S 24°12' W 046°23'2 3.8
2018-May-21 10:31S 24°10' W 046°22'1 1.4
2018-May-21 10:00S 24°11' W 046°23'1 1.6
2018-May-21 09:31S 24°11' W 046°23'1 1.6
2018-May-21 09:01S 24°12' W 046°24'1 1.6
2018-May-21 08:31S 24°12' W 046°25'1 1.8
2018-May-21 08:01S 24°13' W 046°25'1 1.4
2018-May-21 07:31S 24°12' W 046°25'3 6.8
2018-May-21 07:00S 24°10' W 046°22'1 1.5
2018-May-21 06:30S 24°10' W 046°23'1 1.7
2018-May-21 06:00S 24°11' W 046°23'1 2.1
2018-May-21 05:31S 24°11' W 046°24'1 1.3
2018-May-21 05:01S 24°12' W 046°25'2 4.4
2018-May-21 04:31S 24°11' W 046°22'0 0.5
2018-May-21 04:00S 24°11' W 046°22'1 2.3
2018-May-21 03:30S 24°12' W 046°23'1 1.9
2018-May-21 03:00S 24°12' W 046°24'1 1.8
2018-May-21 02:30S 24°11' W 046°24'4 8.1
2018-May-21 02:00S 24°15' W 046°26'612.4
2018-May-21 01:31S 24°21' W 046°27'612.6
2018-May-21 01:01S 24°27' W 046°30'612.6
2018-May-21 00:30S 24°33' W 046°33'612.6
2018-May-21 00:01S 24°38' W 046°36'612.8
2018-May-20 23:31S 24°44' W 046°40'712.9
2018-May-20 22:58S 24°50' W 046°44'  

Dump ship's entire track history